Time;durP1;ratioP1;P1;durP2;ratioP2;P2;SDS_P1;SDS_P2;PMS_P1;PMS_P2;Temp;Humidity;BMP_temperature;BMP_pressure;BME280_temperature;BME280_humidity;BME280_pressure;Samples;Min_cycle;Max_cycle;Signal;HPM_P1;HPM_P2
2021/01/17 05:01:12;;;;;;;;;;;-1.00;99.90;;;;;;5724762;22;19935;-62
2021/01/17 05:03:49;;;;;;;;;;;-1.00;99.90;;;;;;5036438;28;19928;-64
2021/01/17 05:06:22;;;;;;;;;;;-0.90;99.90;;;;;;5035372;28;19925;-65
2021/01/17 05:08:56;;;;;;;;;;;-0.90;99.90;;;;;;5036280;28;19928;-63
2021/01/17 05:11:31;;;;;;;;;;;-0.90;99.90;;;;;;5035587;28;19924;-62
2021/01/17 05:14:06;;;;;;;;;;;-0.80;99.90;;;;;;5035591;28;19960;-62
2021/01/17 05:16:37;;;;;;;;;;;-0.90;99.90;;;;;;5035602;28;19979;-61
2021/01/17 05:19:03;;;;;;;;;;;-0.90;99.90;;;;;;5035710;28;19921;-62
2021/01/17 05:21:32;;;;;;;;;;;-0.90;99.90;;;;;;5035879;28;19921;-62
2021/01/17 05:23:59;;;;;;;;;;;-0.90;99.90;;;;;;5035890;28;19921;-61
2021/01/17 05:26:25;;;;;;;;;;;-0.80;99.90;;;;;;5035404;28;20391;-61
2021/01/17 05:28:51;;;;;;;;;;;-0.80;99.90;;;;;;5035243;28;20330;-61
2021/01/17 05:31:18;;;;;;;;;;;-0.80;99.90;;;;;;5034981;28;19928;-62
2021/01/17 05:33:44;;;;;;;;;;;-0.80;99.90;;;;;;5034738;28;19921;-61
2021/01/17 05:36:14;;;;;;;;;;;-0.80;99.90;;;;;;5034876;28;20326;-62
2021/01/17 05:38:41;;;;;;;;;;;-0.80;99.90;;;;;;5034887;28;20015;-61
2021/01/17 05:41:07;;;;;;;;;;;-0.80;99.90;;;;;;5034777;28;19971;-60
2021/01/17 05:43:33;;;;;;;;;;;-0.70;99.90;;;;;;5034876;28;19928;-62
2021/01/17 05:45:59;;;;;;;;;;;-0.80;99.90;;;;;;5034812;28;19921;-62
2021/01/17 05:48:25;;;;;;;;;;;-0.70;99.90;;;;;;5034422;28;20335;-61
2021/01/17 05:50:51;;;;;;;;;;;-0.80;99.90;;;;;;5034440;28;19921;-61
2021/01/17 05:53:18;;;;;;;;;;;-0.70;99.90;;;;;;5034735;28;19944;-60
2021/01/17 05:55:44;;;;;;;;;;;-0.80;99.90;;;;;;5034729;28;19921;-62
2021/01/17 05:58:20;;;;;;;;;;;-0.70;99.90;;;;;;5034613;28;19921;-62
2021/01/17 06:00:46;;;;;;;;;;;-0.70;99.90;;;;;;5034577;28;20030;-61
2021/01/17 06:03:12;;;;;;;;;;;-0.70;99.90;;;;;;5035338;28;19920;-61
2021/01/17 06:05:39;;;;;;;;;;;-0.60;99.90;;;;;;5035240;28;19921;-62
2021/01/17 06:08:06;;;;;;;;;;;-0.60;99.90;;;;;;5034933;28;19925;-62
2021/01/17 06:10:32;;;;;;;;;;;-0.50;99.90;;;;;;5035322;28;20291;-62
2021/01/17 06:12:58;;;;;;;;;;;-0.50;99.90;;;;;;5034745;28;20395;-65
2021/01/17 06:15:31;;;;;;;;;;;-0.50;99.90;;;;;;5035452;28;19971;-62
2021/01/17 06:17:58;;;;;;;;;;;-0.60;99.90;;;;;;5035028;28;19921;-62
2021/01/17 06:20:25;;;;;;;;;;;-0.70;99.90;;;;;;5034739;28;19928;-64
2021/01/17 06:22:55;;;;;;;;;;;-0.70;99.90;;;;;;5034927;28;20379;-63
2021/01/17 06:25:27;;;;;;;;;;;-0.80;99.90;;;;;;5035048;28;19921;-63
2021/01/17 06:28:05;;;;;;;;;;;-0.80;99.90;;;;;;5034534;28;19951;-63
2021/01/17 06:30:32;;;;;;;;;;;-0.80;99.90;;;;;;5034813;28;19975;-64
2021/01/17 06:32:58;;;;;;;;;;;-0.80;99.90;;;;;;5034394;28;20012;-62
2021/01/17 06:35:29;;;;;;;;;;;-0.90;99.90;;;;;;5033994;28;19992;-63
2021/01/17 06:37:55;;;;;;;;;;;-1.00;99.90;;;;;;5034462;28;19925;-62
2021/01/17 06:40:30;;;;;;;;;;;-1.00;99.90;;;;;;5034213;28;19920;-63
2021/01/17 06:42:58;;;;;;;;;;;-1.00;99.90;;;;;;5034300;28;19921;-63
2021/01/17 06:45:24;;;;;;;;;;;-0.90;99.90;;;;;;5034188;28;20343;-63
2021/01/17 06:47:53;;;;;;;;;;;-1.00;99.90;;;;;;5033942;28;19921;-63
2021/01/17 06:50:22;;;;;;;;;;;-1.00;99.90;;;;;;5038630;28;19956;-62
2021/01/17 06:52:52;;;;;;;;;;;-1.00;99.90;;;;;;5038767;28;19921;-63
2021/01/17 06:55:19;;;;;;;;;;;-1.00;99.90;;;;;;5034920;28;19921;-62
2021/01/17 06:57:46;;;;;;;;;;;-1.00;99.90;;;;;;5035471;28;19925;-62
2021/01/17 07:00:16;;;;;;;;;;;-1.00;99.90;;;;;;5035139;28;19921;-63
2021/01/17 07:02:47;;;;;;;;;;;-0.90;99.90;;;;;;5035172;28;19975;-62
2021/01/17 07:05:32;;;;;;;;;;;-0.80;99.90;;;;;;5035066;28;20335;-62
2021/01/17 07:08:16;;;;;;;;;;;-0.80;99.90;;;;;;5034418;28;20012;-64
2021/01/17 07:10:43;;;;;;;;;;;-0.80;99.90;;;;;;5035154;28;19952;-62
2021/01/17 07:13:10;;;;;;;;;;;-0.80;99.90;;;;;;5038941;28;19921;-63
2021/01/17 07:15:37;;;;;;;;;;;-0.70;99.90;;;;;;5045770;28;19925;-62
2021/01/17 07:18:04;;;;;;;;;;;-0.80;99.90;;;;;;5048878;28;19971;-63
2021/01/17 07:20:31;;;;;;;;;;;-0.70;99.90;;;;;;5041627;28;20269;-63
2021/01/17 07:22:57;;;;;;;;;;;-0.70;99.90;;;;;;5041937;28;19921;-63
2021/01/17 07:25:24;;;;;;;;;;;-0.70;99.90;;;;;;5038766;28;19921;-63
2021/01/17 07:28:07;;;;;;;;;;;-0.60;99.90;;;;;;5037586;28;19971;-62
2021/01/17 07:30:44;;;;;;;;;;;-0.60;99.90;;;;;;5037485;28;20023;-63
2021/01/17 07:33:10;;;;;;;;;;;-0.60;99.90;;;;;;5037525;28;19920;-63
2021/01/17 07:35:37;;;;;;;;;;;-0.50;99.90;;;;;;5037463;28;19936;-63
2021/01/17 07:38:09;;;;;;;;;;;-0.40;99.90;;;;;;5038075;28;19970;-64
2021/01/17 07:40:50;;;;;;;;;;;-0.30;99.90;;;;;;5038703;28;19924;-63
2021/01/17 07:43:16;;;;;;;;;;;-0.30;99.90;;;;;;5039206;28;19921;-62
2021/01/17 07:45:43;;;;;;;;;;;-0.40;99.90;;;;;;5056637;28;19912;-63
2021/01/17 07:48:11;;;;;;;;;;;-0.40;99.90;;;;;;5059656;28;19928;-63
2021/01/17 07:50:37;;;;;;;;;;;-0.40;99.90;;;;;;5048069;28;19921;-61
2021/01/17 07:53:05;;;;;;;;;;;-0.40;99.90;;;;;;5051459;28;19928;-62
2021/01/17 07:55:32;;;;;;;;;;;-0.50;99.90;;;;;;5044074;28;19946;-61
2021/01/17 07:57:58;;;;;;;;;;;-0.40;99.90;;;;;;5037657;28;19921;-61
2021/01/17 08:00:25;;;;;;;;;;;-0.30;99.90;;;;;;5037391;28;19921;-61
2021/01/17 08:02:52;;;;;;;;;;;-0.20;99.90;;;;;;5037235;28;19967;-62
2021/01/17 08:05:18;;;;;;;;;;;-0.10;99.90;;;;;;5037099;28;19928;-61
2021/01/17 08:07:44;;;;;;;;;;;-0.10;99.90;;;;;;5037090;28;19921;-62
2021/01/17 08:10:10;;;;;;;;;;;-0.10;99.90;;;;;;5036848;28;19924;-61
2021/01/17 08:12:40;;;;;;;;;;;0.50;99.90;;;;;;5037440;28;19928;-61
2021/01/17 08:15:13;;;;;;;;;;;0.60;99.90;;;;;;5037539;28;19970;-61
2021/01/17 08:17:39;;;;;;;;;;;0.60;99.90;;;;;;5036848;28;19928;-63
2021/01/17 08:20:07;;;;;;;;;;;0.60;99.90;;;;;;5037565;28;19987;-61
2021/01/17 08:22:44;;;;;;;;;;;0.60;99.90;;;;;;5036598;28;19928;-62
2021/01/17 08:25:12;;;;;;;;;;;0.50;99.90;;;;;;5036740;28;19921;-60
2021/01/17 08:27:39;;;;;;;;;;;0.40;99.90;;;;;;5036863;28;19925;-61
2021/01/17 08:30:29;;;;;;;;;;;0.40;99.90;;;;;;5036459;28;19932;-61
2021/01/17 08:32:56;;;;;;;;;;;0.40;99.90;;;;;;5036578;28;19925;-62
2021/01/17 08:35:32;;;;;;;;;;;0.40;99.90;;;;;;5036091;28;19928;-60
2021/01/17 08:38:11;;;;;;;;;;;0.40;99.90;;;;;;5036345;28;19921;-61
2021/01/17 08:40:44;;;;;;;;;;;0.60;99.90;;;;;;5036319;28;19928;-62
2021/01/17 08:43:12;;;;;;;;;;;0.80;99.90;;;;;;5036101;28;19921;-61
2021/01/17 08:45:39;;;;;;;;;;;0.70;99.90;;;;;;5036970;28;19920;-62
2021/01/17 08:48:20;;;;;;;;;;;0.90;99.90;;;;;;5036272;28;19924;-61
2021/01/17 08:50:48;;;;;;;;;;;1.00;99.90;;;;;;5043132;28;19939;-60
2021/01/17 08:53:15;;;;;;;;;;;0.90;99.90;;;;;;5040288;28;19921;-62
2021/01/17 08:55:41;;;;;;;;;;;1.10;99.90;;;;;;5036283;28;20372;-60
2021/01/17 08:58:08;;;;;;;;;;;1.10;99.90;;;;;;5038602;28;20372;-60
2021/01/17 09:00:58;;;;;;;;;;;1.30;99.90;;;;;;5037708;28;19967;-62
2021/01/17 09:03:24;;;;;;;;;;;1.50;99.90;;;;;;5035842;28;19925;-61
2021/01/17 09:05:52;;;;;;;;;;;1.50;99.90;;;;;;5036668;28;19956;-60
2021/01/17 09:08:18;;;;;;;;;;;1.40;99.90;;;;;;5037795;28;19921;-62
2021/01/17 09:10:44;;;;;;;;;;;1.40;99.90;;;;;;5037098;28;19921;-62
2021/01/17 09:13:17;;;;;;;;;;;1.30;99.90;;;;;;5037143;28;19921;-59
2021/01/17 09:15:47;;;;;;;;;;;1.30;99.90;;;;;;5037388;28;19983;-60
2021/01/17 09:18:22;;;;;;;;;;;1.10;99.90;;;;;;5036893;28;19921;-60
2021/01/17 09:20:49;;;;;;;;;;;1.20;99.90;;;;;;5040016;28;19928;-61
2021/01/17 09:23:18;;;;;;;;;;;1.30;99.90;;;;;;5039046;28;19932;-60
2021/01/17 09:25:44;;;;;;;;;;;1.30;99.90;;;;;;5038580;28;19960;-60
2021/01/17 09:28:10;;;;;;;;;;;1.30;99.90;;;;;;5038386;28;25056;-62
2021/01/17 09:30:37;;;;;;;;;;;1.20;99.90;;;;;;5036588;28;19925;-60
2021/01/17 09:33:03;;;;;;;;;;;1.40;99.90;;;;;;5035984;28;19925;-60
2021/01/17 09:35:29;;;;;;;;;;;1.60;99.90;;;;;;5041288;28;19980;-60
2021/01/17 09:37:57;;;;;;;;;;;1.60;99.90;;;;;;5043066;28;20075;-60
2021/01/17 09:40:24;;;;;;;;;;;1.60;99.90;;;;;;5047356;28;19929;-61
2021/01/17 09:42:52;;;;;;;;;;;1.60;99.90;;;;;;5050639;28;19926;-61
2021/01/17 09:45:18;;;;;;;;;;;1.60;99.90;;;;;;5051738;28;19936;-60
2021/01/17 09:47:44;;;;;;;;;;;1.70;99.90;;;;;;5055730;28;19913;-61
2021/01/17 09:50:11;;;;;;;;;;;1.70;99.90;;;;;;5046529;28;19932;-60
2021/01/17 09:52:38;;;;;;;;;;;1.80;99.90;;;;;;5046644;28;19925;-60
2021/01/17 09:55:06;;;;;;;;;;;1.90;99.90;;;;;;5043490;28;19925;-60
2021/01/17 09:57:36;;;;;;;;;;;2.00;99.90;;;;;;5045486;28;20372;-61
2021/01/17 10:00:06;;;;;;;;;;;2.00;99.90;;;;;;5044906;28;19925;-59
2021/01/17 10:02:32;;;;;;;;;;;1.90;99.90;;;;;;5038292;28;19925;-59
2021/01/17 10:04:58;;;;;;;;;;;2.20;99.90;;;;;;5036437;28;19925;-58
2021/01/17 10:07:24;;;;;;;;;;;2.40;99.90;;;;;;5035240;28;19963;-60
2021/01/17 10:09:50;;;;;;;;;;;2.70;99.90;;;;;;5035127;28;20307;-61
2021/01/17 10:12:18;;;;;;;;;;;3.00;99.90;;;;;;5035054;28;19956;-60
2021/01/17 10:14:45;;;;;;;;;;;3.10;99.90;;;;;;5034726;28;19961;-60
2021/01/17 10:17:11;;;;;;;;;;;3.10;99.90;;;;;;5034780;28;19926;-61
2021/01/17 10:19:38;;;;;;;;;;;2.90;99.90;;;;;;5034768;28;19929;-60
2021/01/17 10:22:05;;;;;;;;;;;3.10;99.90;;;;;;5035324;28;19925;-60
2021/01/17 10:24:31;;;;;;;;;;;3.40;99.90;;;;;;5034776;28;19925;-60
2021/01/17 10:26:58;;;;;;;;;;;3.40;99.90;;;;;;5035678;28;19971;-61
2021/01/17 10:29:28;;;;;;;;;;;3.50;99.90;;;;;;5034967;28;20388;-61
2021/01/17 10:31:59;;;;;;;;;;;3.60;99.90;;;;;;5035623;28;20002;-61
2021/01/17 10:34:26;;;;;;;;;;;3.70;99.90;;;;;;5035300;28;19948;-60
2021/01/17 10:36:56;;;;;;;;;;;3.70;99.90;;;;;;5035645;28;19925;-61
2021/01/17 10:39:22;;;;;;;;;;;3.70;99.90;;;;;;5035069;28;20354;-60
2021/01/17 10:41:49;;;;;;;;;;;3.70;99.90;;;;;;5035271;28;19925;-60
2021/01/17 10:44:21;;;;;;;;;;;3.20;99.90;;;;;;5035149;28;19932;-59
2021/01/17 10:46:50;;;;;;;;;;;2.70;99.90;;;;;;5037520;28;19932;-60
2021/01/17 10:49:18;;;;;;;;;;;2.80;99.90;;;;;;5039741;28;19995;-59
2021/01/17 10:51:46;;;;;;;;;;;2.60;99.90;;;;;;5039413;28;19925;-60
2021/01/17 10:54:20;;;;;;;;;;;2.70;99.90;;;;;;5039798;28;20342;-60
2021/01/17 10:56:46;;;;;;;;;;;3.00;99.90;;;;;;5039523;28;19929;-60
2021/01/17 10:59:12;;;;;;;;;;;3.20;99.90;;;;;;5039961;28;19925;-60
2021/01/17 11:01:44;;;;;;;;;;;3.30;99.90;;;;;;5038866;28;19925;-61
2021/01/17 11:04:10;;;;;;;;;;;3.30;99.90;;;;;;5039586;28;19925;-60
2021/01/17 11:06:37;;;;;;;;;;;3.40;99.90;;;;;;5039090;28;19929;-59
2021/01/17 11:09:10;;;;;;;;;;;3.20;99.90;;;;;;5039376;28;19925;-59
2021/01/17 11:11:41;;;;;;;;;;;3.10;99.90;;;;;;5038710;28;19929;-59
2021/01/17 11:14:07;;;;;;;;;;;3.10;99.90;;;;;;5038784;28;19929;-60
2021/01/17 11:16:34;;;;;;;;;;;3.10;99.90;;;;;;5038900;28;19928;-59
2021/01/17 11:19:00;;;;;;;;;;;3.60;99.90;;;;;;5038418;28;19932;-61
2021/01/17 11:21:27;;;;;;;;;;;3.80;99.90;;;;;;5038254;28;20304;-60
2021/01/17 11:23:54;;;;;;;;;;;4.10;99.90;;;;;;5039976;28;19932;-59
2021/01/17 11:26:21;;;;;;;;;;;4.20;99.90;;;;;;5039087;28;19925;-59
2021/01/17 11:28:50;;;;;;;;;;;4.20;99.90;;;;;;5038327;28;20020;-59
2021/01/17 11:31:16;;;;;;;;;;;4.30;99.90;;;;;;5040877;28;19929;-59
2021/01/17 11:33:42;;;;;;;;;;;4.30;99.90;;;;;;5039937;28;19929;-60
2021/01/17 11:36:09;;;;;;;;;;;4.20;99.90;;;;;;5039232;28;19925;-61
2021/01/17 11:38:41;;;;;;;;;;;4.40;99.90;;;;;;5038456;28;20327;-63
2021/01/17 11:41:09;;;;;;;;;;;4.40;99.90;;;;;;5038473;28;19932;-62
2021/01/17 11:43:35;;;;;;;;;;;4.30;99.90;;;;;;5039088;28;19925;-61
2021/01/17 11:46:04;;;;;;;;;;;4.40;99.90;;;;;;5038543;28;19926;-61
2021/01/17 11:48:31;;;;;;;;;;;4.20;99.90;;;;;;5038550;28;20304;-59
2021/01/17 11:50:57;;;;;;;;;;;3.90;99.90;;;;;;5039231;28;19976;-60
2021/01/17 11:53:25;;;;;;;;;;;3.70;99.90;;;;;;5039675;28;19924;-61
2021/01/17 11:55:51;;;;;;;;;;;3.50;99.90;;;;;;5039892;28;19925;-59
2021/01/17 11:58:18;;;;;;;;;;;3.30;99.90;;;;;;5038043;28;19925;-60
2021/01/17 12:00:45;;;;;;;;;;;3.30;99.90;;;;;;5038719;28;19925;-59
2021/01/17 12:03:20;;;;;;;;;;;3.00;99.90;;;;;;5039450;28;19952;-60
2021/01/17 12:05:55;;;;;;;;;;;2.90;99.90;;;;;;5038058;28;19936;-59
2021/01/17 12:08:21;;;;;;;;;;;2.80;99.90;;;;;;5038169;28;19975;-61
2021/01/17 12:10:53;;;;;;;;;;;2.70;99.90;;;;;;5037089;28;19932;-61
2021/01/17 12:13:20;;;;;;;;;;;2.80;99.90;;;;;;5038988;28;19925;-62
2021/01/17 12:15:46;;;;;;;;;;;2.90;99.90;;;;;;5038691;28;19995;-61
2021/01/17 12:18:12;;;;;;;;;;;2.90;99.90;;;;;;5038155;28;19948;-60
2021/01/17 12:20:38;;;;;;;;;;;3.00;99.90;;;;;;5037006;28;20250;-61
2021/01/17 12:23:04;;;;;;;;;;;2.90;99.90;;;;;;5037145;28;19925;-60
2021/01/17 12:25:30;;;;;;;;;;;2.90;99.90;;;;;;5037148;28;19929;-59
2021/01/17 12:27:56;;;;;;;;;;;3.00;99.90;;;;;;5037554;28;19936;-60
2021/01/17 12:30:24;;;;;;;;;;;3.00;99.90;;;;;;5036979;28;19925;-59
2021/01/17 12:32:50;;;;;;;;;;;3.00;99.90;;;;;;5037193;28;19972;-60
2021/01/17 12:35:16;;;;;;;;;;;3.00;99.90;;;;;;5037483;28;19937;-60
2021/01/17 12:37:42;;;;;;;;;;;3.10;99.90;;;;;;5037759;28;19932;-59
2021/01/17 12:40:08;;;;;;;;;;;3.00;99.90;;;;;;5038159;28;19925;-60
2021/01/17 12:42:34;;;;;;;;;;;2.90;99.90;;;;;;5036113;28;19925;-61
2021/01/17 12:45:01;;;;;;;;;;;2.90;99.90;;;;;;5036101;28;19932;-63
2021/01/17 12:47:27;;;;;;;;;;;2.80;99.90;;;;;;5036718;28;19925;-60
2021/01/17 12:49:53;;;;;;;;;;;2.90;99.90;;;;;;5036412;28;19930;-62
2021/01/17 12:52:19;;;;;;;;;;;2.90;99.90;;;;;;5036340;28;19979;-60
2021/01/17 12:54:45;;;;;;;;;;;2.90;99.90;;;;;;5036160;28;20090;-61
2021/01/17 12:57:11;;;;;;;;;;;2.80;99.90;;;;;;5035701;28;19932;-60
2021/01/17 12:59:39;;;;;;;;;;;2.90;99.90;;;;;;5035482;28;19925;-61
2021/01/17 13:02:05;;;;;;;;;;;2.80;99.90;;;;;;5035174;28;19948;-61
2021/01/17 13:04:32;;;;;;;;;;;2.90;99.90;;;;;;5036794;28;19925;-60
2021/01/17 13:07:03;;;;;;;;;;;2.80;99.90;;;;;;5035557;28;19975;-61
2021/01/17 13:09:29;;;;;;;;;;;2.70;99.90;;;;;;5034878;28;19932;-61
2021/01/17 13:11:55;;;;;;;;;;;2.70;99.90;;;;;;5036401;28;20019;-61
2021/01/17 13:14:21;;;;;;;;;;;2.60;99.90;;;;;;5036418;28;19988;-62
2021/01/17 13:16:47;;;;;;;;;;;2.60;99.90;;;;;;5035357;28;20269;-61
2021/01/17 13:19:13;;;;;;;;;;;2.60;99.90;;;;;;5034951;28;20376;-60
2021/01/17 13:21:40;;;;;;;;;;;2.60;99.90;;;;;;5035855;28;19925;-61
2021/01/17 13:24:07;;;;;;;;;;;2.70;99.90;;;;;;5035222;28;19929;-61
2021/01/17 13:26:33;;;;;;;;;;;2.80;99.90;;;;;;5035603;28;20016;-61
2021/01/17 13:28:59;;;;;;;;;;;2.90;99.90;;;;;;5035774;28;19925;-61
2021/01/17 13:31:25;;;;;;;;;;;2.90;99.90;;;;;;5035079;28;19928;-61
2021/01/17 13:33:51;;;;;;;;;;;2.90;99.90;;;;;;5034795;28;19968;-61
2021/01/17 13:36:18;;;;;;;;;;;2.90;99.90;;;;;;5037469;28;19925;-61
2021/01/17 13:38:45;;;;;;;;;;;2.90;99.90;;;;;;5036224;28;20284;-61
2021/01/17 13:41:12;;;;;;;;;;;2.90;99.90;;;;;;5036033;28;19925;-61
2021/01/17 13:43:38;;;;;;;;;;;2.90;99.90;;;;;;5035160;28;20376;-61
2021/01/17 13:46:04;;;;;;;;;;;3.00;99.90;;;;;;5038364;28;19936;-61
2021/01/17 13:48:30;;;;;;;;;;;2.90;99.90;;;;;;5046199;28;19925;-62
2021/01/17 13:50:56;;;;;;;;;;;3.00;99.90;;;;;;5034472;28;20408;-61
2021/01/17 13:53:22;;;;;;;;;;;3.10;99.90;;;;;;5034878;28;19994;-61
2021/01/17 13:55:49;;;;;;;;;;;3.10;99.90;;;;;;5035197;28;20303;-61
2021/01/17 13:58:15;;;;;;;;;;;3.20;99.90;;;;;;5035129;28;19925;-61
2021/01/17 14:00:41;;;;;;;;;;;3.10;99.90;;;;;;5034763;28;19930;-61
2021/01/17 14:03:07;;;;;;;;;;;3.00;99.90;;;;;;5034777;28;20380;-62
2021/01/17 14:05:33;;;;;;;;;;;2.80;99.90;;;;;;5034910;28;19932;-62
2021/01/17 14:07:59;;;;;;;;;;;2.80;99.90;;;;;;5034626;28;19926;-61
2021/01/17 14:10:25;;;;;;;;;;;2.80;99.90;;;;;;5034378;28;19925;-62
2021/01/17 14:12:53;;;;;;;;;;;2.80;99.90;;;;;;5035723;28;20399;-62
2021/01/17 14:15:20;;;;;;;;;;;2.90;99.90;;;;;;5053192;28;19947;-60
2021/01/17 14:17:46;;;;;;;;;;;2.90;99.90;;;;;;5053591;28;19925;-60
2021/01/17 14:20:12;;;;;;;;;;;2.90;99.90;;;;;;5053346;28;19925;-60
2021/01/17 14:22:38;;;;;;;;;;;2.90;99.90;;;;;;5051731;28;19925;-61
2021/01/17 14:25:06;;;;;;;;;;;2.80;99.90;;;;;;5034691;28;19925;-60
2021/01/17 14:27:32;;;;;;;;;;;2.70;99.90;;;;;;5034902;28;19925;-60
2021/01/17 14:30:00;;;;;;;;;;;2.80;99.90;;;;;;5034475;28;19932;-59
2021/01/17 14:32:28;;;;;;;;;;;2.80;99.90;;;;;;5034938;28;21222;-61
2021/01/17 14:34:54;;;;;;;;;;;2.70;99.90;;;;;;5037796;28;19929;-62
2021/01/17 14:37:20;;;;;;;;;;;2.70;99.90;;;;;;5037809;28;19932;-61
2021/01/17 14:39:46;;;;;;;;;;;2.70;99.90;;;;;;5037119;28;19929;-61
2021/01/17 14:42:12;;;;;;;;;;;2.60;99.90;;;;;;5034760;28;19979;-61
2021/01/17 14:44:38;;;;;;;;;;;2.60;99.90;;;;;;5034322;28;20276;-61
2021/01/17 14:47:05;;;;;;;;;;;2.60;99.90;;;;;;5034729;28;19925;-61
2021/01/17 14:49:31;;;;;;;;;;;2.60;99.90;;;;;;5034460;28;19925;-60
2021/01/17 14:51:58;;;;;;;;;;;2.50;99.90;;;;;;5033999;28;19932;-60
2021/01/17 14:54:24;;;;;;;;;;;2.50;99.90;;;;;;5034343;28;19925;-61
2021/01/17 14:56:50;;;;;;;;;;;2.50;99.90;;;;;;5033694;28;20372;-60
2021/01/17 14:59:18;;;;;;;;;;;2.50;99.90;;;;;;5033846;28;19940;-61
2021/01/17 15:01:44;;;;;;;;;;;2.60;99.90;;;;;;5033601;28;19930;-61
2021/01/17 15:04:12;;;;;;;;;;;2.60;99.90;;;;;;5036114;28;19929;-61
2021/01/17 15:06:38;;;;;;;;;;;2.60;99.90;;;;;;5034028;28;19925;-61
2021/01/17 15:09:05;;;;;;;;;;;2.60;99.90;;;;;;5033756;28;19925;-61
2021/01/17 15:11:31;;;;;;;;;;;2.60;99.90;;;;;;5033455;28;20319;-62
2021/01/17 15:13:57;;;;;;;;;;;2.50;99.90;;;;;;5033806;28;19932;-61
2021/01/17 15:16:25;;;;;;;;;;;2.50;99.90;;;;;;5034287;28;19925;-61
2021/01/17 15:18:51;;;;;;;;;;;2.50;99.90;;;;;;5033986;28;19932;-61
2021/01/17 15:21:19;;;;;;;;;;;2.40;99.90;;;;;;5033849;28;19929;-60
2021/01/17 15:23:45;;;;;;;;;;;2.40;99.90;;;;;;5033837;28;20012;-60
2021/01/17 15:26:11;;;;;;;;;;;2.40;99.90;;;;;;5033956;28;20269;-61
2021/01/17 15:28:37;;;;;;;;;;;2.30;99.90;;;;;;5033842;28;19925;-61
2021/01/17 15:31:04;;;;;;;;;;;2.30;99.90;;;;;;5035693;28;20296;-59
2021/01/17 15:33:31;;;;;;;;;;;2.40;99.90;;;;;;5036013;28;19971;-59
2021/01/17 15:35:57;;;;;;;;;;;2.30;99.90;;;;;;5037325;28;20392;-61
2021/01/17 15:38:24;;;;;;;;;;;2.30;99.90;;;;;;5037804;28;19925;-61
2021/01/17 15:40:51;;;;;;;;;;;2.30;99.90;;;;;;5037894;28;19932;-61
2021/01/17 15:43:17;;;;;;;;;;;2.30;99.90;;;;;;5037854;28;19937;-60
2021/01/17 15:45:43;;;;;;;;;;;2.30;99.90;;;;;;5037624;28;19955;-60
2021/01/17 15:48:09;;;;;;;;;;;2.30;99.90;;;;;;5039130;28;19925;-60
2021/01/17 15:50:36;;;;;;;;;;;2.30;99.90;;;;;;5039754;28;19925;-60
2021/01/17 15:53:02;;;;;;;;;;;2.40;99.90;;;;;;5040321;28;19929;-60
2021/01/17 15:55:29;;;;;;;;;;;2.30;99.90;;;;;;5037240;28;19925;-59
2021/01/17 15:57:55;;;;;;;;;;;2.40;99.90;;;;;;5037070;28;20319;-61
2021/01/17 16:00:21;;;;;;;;;;;2.40;99.90;;;;;;5036701;28;19972;-62
2021/01/17 16:02:47;;;;;;;;;;;2.40;99.90;;;;;;5037152;28;19925;-60
2021/01/17 16:05:15;;;;;;;;;;;2.40;99.90;;;;;;5037407;28;19925;-60
2021/01/17 16:07:42;;;;;;;;;;;2.40;99.90;;;;;;5036898;28;19925;-60
2021/01/17 16:10:08;;;;;;;;;;;2.40;99.90;;;;;;5036588;28;19925;-61
2021/01/17 16:12:35;;;;;;;;;;;2.40;99.90;;;;;;5037718;28;19925;-59
2021/01/17 16:15:01;;;;;;;;;;;2.40;99.90;;;;;;5037909;28;19925;-59
2021/01/17 16:17:27;;;;;;;;;;;2.50;99.90;;;;;;5036125;28;19932;-59
2021/01/17 16:19:53;;;;;;;;;;;2.50;99.90;;;;;;5036455;28;19925;-60
2021/01/17 16:22:20;;;;;;;;;;;2.50;99.90;;;;;;5036504;28;20292;-61
2021/01/17 16:24:46;;;;;;;;;;;2.50;99.90;;;;;;5037069;28;19972;-59
2021/01/17 16:27:12;;;;;;;;;;;2.50;99.90;;;;;;5036636;28;19940;-61
2021/01/17 16:29:38;;;;;;;;;;;2.50;99.90;;;;;;5037220;28;19929;-61
2021/01/17 16:32:05;;;;;;;;;;;2.50;99.90;;;;;;5036122;28;19925;-59
2021/01/17 16:34:32;;;;;;;;;;;2.50;99.90;;;;;;5036260;28;19925;-62
2021/01/17 16:37:01;;;;;;;;;;;2.50;99.90;;;;;;5036642;28;20292;-62
2021/01/17 16:39:27;;;;;;;;;;;2.50;99.90;;;;;;5036222;28;19925;-62
2021/01/17 16:41:56;;;;;;;;;;;2.50;99.90;;;;;;5036004;28;19925;-62
2021/01/17 16:44:22;;;;;;;;;;;2.50;99.90;;;;;;5036060;28;20273;-61
2021/01/17 16:46:49;;;;;;;;;;;2.50;99.90;;;;;;5037318;28;19925;-63
2021/01/17 16:49:15;;;;;;;;;;;2.50;99.90;;;;;;5038016;28;19932;-61
2021/01/17 16:51:41;;;;;;;;;;;2.50;99.90;;;;;;5038083;28;19925;-60
2021/01/17 16:54:08;;;;;;;;;;;2.50;99.90;;;;;;5036767;28;19932;-62
2021/01/17 16:56:34;;;;;;;;;;;2.50;99.90;;;;;;5035882;28;19948;-62
2021/01/17 16:59:00;;;;;;;;;;;2.60;99.90;;;;;;5036278;28;20312;-62
2021/01/17 17:01:36;;;;;;;;;;;2.50;99.90;;;;;;5035463;28;19929;-61
2021/01/17 17:04:03;;;;;;;;;;;2.60;99.90;;;;;;5036330;28;19931;-62
2021/01/17 17:06:29;;;;;;;;;;;2.60;99.90;;;;;;5035762;28;19979;-61
2021/01/17 17:08:55;;;;;;;;;;;2.60;99.90;;;;;;5036823;28;19975;-62
2021/01/17 17:11:22;;;;;;;;;;;2.60;99.90;;;;;;5035497;28;20365;-61
2021/01/17 17:13:48;;;;;;;;;;;2.70;99.90;;;;;;5037307;28;20356;-61
2021/01/17 17:16:18;;;;;;;;;;;2.70;99.90;;;;;;5036834;28;19925;-61
2021/01/17 17:18:44;;;;;;;;;;;2.70;99.90;;;;;;5036159;28;19932;-60
2021/01/17 17:21:11;;;;;;;;;;;2.70;99.90;;;;;;5035446;28;19925;-60
2021/01/17 17:23:37;;;;;;;;;;;2.70;99.90;;;;;;5036720;28;19929;-61
2021/01/17 17:26:03;;;;;;;;;;;2.70;99.90;;;;;;5035262;28;19925;-61
2021/01/17 17:28:29;;;;;;;;;;;2.70;99.90;;;;;;5034970;28;19925;-61
2021/01/17 17:30:55;;;;;;;;;;;2.70;99.90;;;;;;5034690;28;20384;-62
2021/01/17 17:33:21;;;;;;;;;;;2.80;99.90;;;;;;5035316;28;19925;-61
2021/01/17 17:35:47;;;;;;;;;;;2.80;99.90;;;;;;5034921;28;19939;-60
2021/01/17 17:38:14;;;;;;;;;;;2.80;99.90;;;;;;5035999;28;20388;-61
2021/01/17 17:40:42;;;;;;;;;;;2.80;99.90;;;;;;5035075;28;19932;-61
2021/01/17 17:43:08;;;;;;;;;;;2.80;99.90;;;;;;5035072;28;20059;-61
2021/01/17 17:45:34;;;;;;;;;;;2.80;99.90;;;;;;5035278;28;19925;-62
2021/01/17 17:48:00;;;;;;;;;;;2.80;99.90;;;;;;5034975;28;19925;-62
2021/01/17 17:50:26;;;;;;;;;;;2.80;99.90;;;;;;5036095;28;19925;-62
2021/01/17 17:52:53;;;;;;;;;;;2.80;99.90;;;;;;5034904;28;19968;-62
2021/01/17 17:55:20;;;;;;;;;;;2.80;99.90;;;;;;5034520;28;20012;-62
2021/01/17 17:57:47;;;;;;;;;;;2.80;99.90;;;;;;5075522;22;19925;-65
2021/01/17 18:00:14;;;;;;;;;;;2.90;99.90;;;;;;5035669;28;19932;-66
2021/01/17 18:02:40;;;;;;;;;;;2.90;99.90;;;;;;5036558;28;19925;-65
2021/01/17 18:05:06;;;;;;;;;;;2.80;99.90;;;;;;5045201;28;19929;-65
2021/01/17 18:07:32;;;;;;;;;;;2.80;99.90;;;;;;5036109;28;20276;-64
2021/01/17 18:09:58;;;;;;;;;;;2.90;99.90;;;;;;5035214;28;19971;-65
2021/01/17 18:12:25;;;;;;;;;;;2.90;99.90;;;;;;5035080;28;19975;-64
2021/01/17 18:14:51;;;;;;;;;;;2.90;99.90;;;;;;5035775;28;20318;-64
2021/01/17 18:17:17;;;;;;;;;;;2.90;99.90;;;;;;5035942;28;19940;-63
2021/01/17 18:19:43;;;;;;;;;;;2.90;99.90;;;;;;5035428;28;19925;-64
2021/01/17 18:22:09;;;;;;;;;;;2.90;99.90;;;;;;5035915;28;19926;-65
2021/01/17 18:24:35;;;;;;;;;;;2.90;99.90;;;;;;5036680;28;19925;-65
2021/01/17 18:27:01;;;;;;;;;;;3.00;99.90;;;;;;5036099;28;19932;-65
2021/01/17 18:29:30;;;;;;;;;;;3.00;99.90;;;;;;5036176;28;19948;-63
2021/01/17 18:31:56;;;;;;;;;;;3.00;99.90;;;;;;5036265;28;19925;-64
2021/01/17 18:34:22;;;;;;;;;;;3.00;99.90;;;;;;5035923;28;19925;-64
2021/01/17 18:36:48;;;;;;;;;;;3.00;99.90;;;;;;5035651;28;19925;-65
2021/01/17 18:39:14;;;;;;;;;;;2.90;99.90;;;;;;5034802;28;19929;-64
2021/01/17 18:41:40;;;;;;;;;;;3.00;99.90;;;;;;5034765;28;19925;-63
2021/01/17 18:44:06;;;;;;;;;;;3.60;99.90;;;;;;5034581;28;19936;-65
2021/01/17 18:46:33;;;;;;;;;;;3.90;99.90;;;;;;5034372;28;20394;-65
2021/01/17 18:48:59;;;;;;;;;;;4.20;99.90;;;;;;5034280;28;20380;-65
2021/01/17 18:51:25;;;;;;;;;;;4.30;99.90;;;;;;5034139;28;20442;-64
2021/01/17 18:53:51;;;;;;;;;;;4.20;99.90;;;;;;5033971;28;19925;-65
2021/01/17 18:56:17;;;;;;;;;;;4.10;99.90;;;;;;5033894;28;19929;-66
2021/01/17 18:58:43;;;;;;;;;;;4.10;99.90;;;;;;5034486;28;20303;-65
2021/01/17 19:01:10;;;;;;;;;;;4.00;99.90;;;;;;5034318;28;19925;-65
2021/01/17 19:03:36;;;;;;;;;;;3.90;99.90;;;;;;5034007;28;20391;-66
2021/01/17 19:06:03;;;;;;;;;;;3.80;99.90;;;;;;5034532;28;19925;-65
2021/01/17 19:08:29;;;;;;;;;;;3.60;99.90;;;;;;5037356;28;19956;-65
2021/01/17 19:10:55;;;;;;;;;;;3.60;99.90;;;;;;5038239;28;20004;-66
2021/01/17 19:13:21;;;;;;;;;;;3.50;99.90;;;;;;5038198;28;19975;-66
2021/01/17 19:15:47;;;;;;;;;;;3.50;99.90;;;;;;5038162;28;19937;-65
2021/01/17 19:18:13;;;;;;;;;;;3.50;99.90;;;;;;5037837;28;19925;-65
2021/01/17 19:20:40;;;;;;;;;;;3.40;99.90;;;;;;5038039;28;19925;-65
2021/01/17 19:23:06;;;;;;;;;;;3.40;99.90;;;;;;5038071;28;19929;-65
2021/01/17 19:25:32;;;;;;;;;;;3.30;99.90;;;;;;5038033;28;19925;-65
2021/01/17 19:27:58;;;;;;;;;;;3.30;99.90;;;;;;5037772;28;19925;-65